Westford, VT (05494)

11:56 AM EST on February 14, 2016 (GMT -0500)
Coyote Ridge | | Change Station
CLOSE
Current Station
Personal Weather Station
Location: Westford, VT
Elevation: 472 ft
Nearby Weather Stations
Active Advisory: Wind Chill Warning Active Notice: Record Report

Elev 472 ft 44.63 °N, 73.01 °W | Updated 4 seconds ago

Partly Cloudy
Partly Cloudy
-7.4 °F
Feels Like -17 °F
N
3.6
Wind Variable Wind from NNE
Gusts 4.9 mph

Today
High -- | Low -- °F
--% Chance of Precip.
Yesterday
High -- | Low -- °F
Precip. -- in
Pressure 30.53 in
Visibility 10.0 miles
Clouds Few 2300 ft
Few 6000 ft
Windchill -17 °F
Dew Point -31 °F
Humidity 29%
Rainfall 0.00 in
Snow Depth Not available.
6:54 AM 5:18 PM
Waxing Crescent, 43% visible
METAR KBTV 141654Z 35008KT 10SM FEW023 FEW060 M21/M28 A3049 RMK AO2 SNE12 SLP336 P0000 T12061283
Pressure 30.53 in
Visibility 10.0 miles
Clouds Few 2300 ft
Few 6000 ft
Windchill -17 °F
Dew Point -31 °F
Humidity 29%
Rainfall 0.00 in
Snow Depth Not available.
6:54 AM 5:18 PM
Waxing Crescent, 43% visible
METAR KBTV 141654Z 35008KT 10SM FEW023 FEW060 M21/M28 A3049 RMK AO2 SNE12 SLP336 P0000 T12061283

10-Day Weather Forecast

Almanac

Astronomy

Feb. 14, 2016 Rise Set
Actual Time
Civil Twilight
Nautical Twilight
Astronomical Twilight
Moon
Length of Visible Light
Length of Day
Tomorrow will be .
, % of the Moon is Illuminated

Today's Extremes

State Highs State Lows

Community

WunderPhotos

Upload Photos

1,892,837 photos uploaded!

WunderBlog® & News

Nearby

Air Quality

  Air Quality AQ Index Pollutant
Not available.

Snow Depth

Station Depth Elevation

Earthquake Activity

City Distance Mag. Time & Date
Minimum magnitude displayed is 2.5.

Coastal Water Temperatures

Place Temperature

Stations

Nearby Weather Stations

Station Location Temp. Windchill Dew Point Humidity Wind Precip. Elev Updated Type
                   

Watches & Warnings

Wind Chill Warning
Issued: 11:20 AM EST Feb. 14, 2016 – National Weather Service

... Wind chill warning remains in effect until 7 PM EST this
evening...

The National Weather Service in Burlington continues the wind
chill warning... until 7 PM EST this evening.

* Locations... all of northern New York... as well as central and
northern Vermont.

* Hazard types... dangerously low wind chill values.

* Wind chill readings... 25 to 35 below through mid-afternoon
before slowly warming.

* Timing... through 7 PM.

* Impacts... potential frostbite and hypothermia.

Precautionary/preparedness actions...

A wind chill warning means the combination of very cold air and
strong winds will create dangerously low wind chill values. This
will result in frostbite and lead to hypothermia or death if
precautions are not taken.

Please stay tuned to NOAA Weather Radio... your local media... or
go to www.Weather.Gov/Burlington for further updates on this
weather situation.